createdAt,value
2022-10-02T00:01:08.006Z,60.51
2022-10-02T00:03:39.037Z,60.02
2022-10-02T00:06:14.817Z,60.40
2022-10-02T00:08:42.087Z,60.16
2022-10-02T00:11:16.624Z,59.47
2022-10-02T00:13:47.295Z,59.73
2022-10-02T00:16:24.616Z,59.99
2022-10-02T00:18:54.207Z,59.79
2022-10-02T00:21:33.680Z,59.65
2022-10-02T00:24:02.511Z,59.58
2022-10-02T00:26:34.717Z,60.13
2022-10-02T00:29:16.274Z,60.25
2022-10-02T00:31:57.111Z,60.17
2022-10-02T00:34:34.531Z,60.17
2022-10-02T00:37:10.995Z,59.64
2022-10-02T00:39:52.027Z,59.45
2022-10-02T00:42:46.993Z,59.83
2022-10-02T00:45:49.359Z,59.57
2022-10-02T00:48:31.500Z,59.66
2022-10-02T00:51:08.838Z,60.04
2022-10-02T00:53:46.617Z,59.85
2022-10-02T00:56:28.299Z,59.78
2022-10-02T00:59:38.001Z,59.58
2022-10-02T01:02:12.219Z,59.22
2022-10-02T01:04:41.272Z,59.76
2022-10-02T01:07:11.929Z,59.52
2022-10-02T01:09:41.426Z,59.46
2022-10-02T01:12:16.096Z,59.40
2022-10-02T01:14:43.006Z,59.59
2022-10-02T01:17:23.063Z,59.91
2022-10-02T01:19:50.382Z,60.13
2022-10-02T01:22:25.598Z,60.23
2022-10-02T01:24:54.883Z,59.61
2022-10-02T01:27:23.655Z,59.28
2022-10-02T01:29:55.830Z,59.72
2022-10-02T01:32:27.805Z,59.95
2022-10-02T01:34:56.405Z,60.25
2022-10-02T01:37:30.737Z,60.33
2022-10-02T01:42:52.046Z,60.16
2022-10-02T01:45:31.218Z,60.31
2022-10-02T01:48:02.826Z,60.43
2022-10-02T01:50:38.019Z,60.18
2022-10-02T01:53:13.306Z,60.65
2022-10-02T01:55:51.403Z,59.86
2022-10-02T01:58:29.764Z,59.17
2022-10-02T02:01:04.875Z,59.88
2022-10-02T02:03:42.575Z,60.24
2022-10-02T02:06:16.049Z,60.33
2022-10-02T02:08:56.497Z,60.47
2022-10-02T02:11:49.467Z,60.87
2022-10-02T02:17:10.407Z,60.38
2022-10-02T02:19:46.784Z,60.19
2022-10-02T02:33:47.374Z,59.87
2022-10-02T02:39:03.410Z,60.22
2022-10-02T02:41:41.541Z,60.11
2022-10-02T02:44:15.606Z,59.90
2022-10-02T02:47:04.414Z,59.92
2022-10-02T02:49:41.878Z,60.00
2022-10-02T03:00:59.551Z,59.47
2022-10-02T03:03:31.495Z,59.48
2022-10-02T03:08:47.884Z,59.42
2022-10-02T03:14:21.896Z,60.04
2022-10-02T03:16:58.475Z,59.78
2022-10-02T03:19:55.731Z,60.38
2022-10-02T03:25:41.922Z,59.97
2022-10-02T03:28:37.392Z,59.88
2022-10-02T03:31:16.928Z,59.67
2022-10-02T03:36:31.708Z,59.78
2022-10-02T03:39:23.600Z,59.29
2022-10-02T03:41:52.327Z,59.69
2022-10-02T03:49:41.676Z,59.98
2022-10-02T03:52:19.866Z,59.80
2022-10-02T03:54:49.318Z,59.79
2022-10-02T03:57:22.783Z,59.49
2022-10-02T03:59:57.524Z,60.07
2022-10-02T04:05:23.130Z,60.14
2022-10-02T04:07:54.972Z,60.65
2022-10-02T04:13:14.555Z,59.88
2022-10-02T04:16:01.372Z,60.23
2022-10-02T04:18:32.522Z,60.38
2022-10-02T04:21:06.090Z,60.82
2022-10-02T04:23:37.816Z,60.26
2022-10-02T04:26:15.125Z,60.69
2022-10-02T04:28:48.342Z,61.12
2022-10-02T04:31:15.271Z,60.98
2022-10-02T04:33:42.206Z,61.37
2022-10-02T04:36:27.158Z,61.41
2022-10-02T04:39:07.826Z,61.53
2022-10-02T04:41:52.837Z,60.79
2022-10-02T04:44:32.799Z,61.14
2022-10-02T04:47:18.156Z,61.82
2022-10-02T04:50:02.311Z,61.61
2022-10-02T04:52:51.911Z,61.72
2022-10-02T04:55:43.612Z,61.27
2022-10-02T04:58:35.973Z,61.68
2022-10-02T05:01:14.775Z,61.94
2022-10-02T05:04:08.542Z,62.10
2022-10-02T05:06:53.739Z,62.44
2022-10-02T05:09:28.956Z,62.75
2022-10-02T05:12:27.285Z,63.41
2022-10-02T05:15:19.600Z,63.05
2022-10-02T05:18:14.592Z,63.18
2022-10-02T05:21:03.250Z,63.58
2022-10-02T05:23:43.178Z,63.48
2022-10-02T05:26:31.698Z,62.82
2022-10-02T05:29:12.857Z,63.00
2022-10-02T05:31:54.949Z,63.64
2022-10-02T05:34:38.900Z,63.27
2022-10-02T05:37:21.753Z,63.59
2022-10-02T05:39:57.426Z,63.81
2022-10-02T05:42:27.653Z,63.62
2022-10-02T05:45:05.114Z,63.83
2022-10-02T05:47:37.462Z,64.24
2022-10-02T05:50:16.856Z,64.17
2022-10-02T05:52:59.622Z,64.26
2022-10-02T05:55:33.181Z,64.52
2022-10-02T05:58:08.224Z,64.38
2022-10-02T07:27:19.794Z,67.87
2022-10-02T07:36:06.526Z,68.56
2022-10-02T07:38:58.856Z,68.40
2022-10-02T07:44:59.265Z,68.63
2022-10-02T08:25:56.427Z,69.93
2022-10-02T08:35:36.062Z,70.35
2022-10-02T09:03:33.968Z,69.47
2022-10-02T09:06:34.415Z,69.10
2022-10-02T09:13:11.927Z,68.77
2022-10-02T09:29:04.312Z,68.25
2022-10-02T09:38:29.805Z,68.08
2022-10-02T09:44:49.821Z,68.37
2022-10-02T09:51:18.824Z,68.13
2022-10-02T09:54:22.519Z,68.56
2022-10-02T09:57:17.655Z,68.48
2022-10-02T10:00:33.890Z,67.92
2022-10-02T10:03:55.887Z,67.67
2022-10-02T10:06:57.975Z,66.86
2022-10-02T10:09:58.127Z,65.04
2022-10-02T10:13:01.101Z,66.09
2022-10-02T10:15:53.634Z,64.06
2022-10-02T10:18:56.550Z,62.72
2022-10-02T10:22:07.867Z,64.18
2022-10-02T10:25:03.987Z,61.85
2022-10-02T10:28:10.141Z,62.43
2022-10-02T10:31:10.142Z,60.46
2022-10-02T10:34:09.466Z,61.72
2022-10-02T10:37:10.315Z,60.14
2022-10-02T10:40:21.191Z,59.93
2022-10-02T10:43:24.030Z,57.29
2022-10-02T10:46:28.041Z,57.91
2022-10-02T10:49:44.224Z,58.86
2022-10-02T10:52:33.029Z,59.53
2022-10-02T10:55:36.039Z,58.67
2022-10-02T10:58:21.949Z,57.36
2022-10-02T11:01:01.618Z,57.22
2022-10-02T11:04:18.435Z,57.57
2022-10-02T11:07:16.297Z,56.92
2022-10-02T11:10:14.198Z,56.09
2022-10-02T11:13:09.533Z,55.03
2022-10-02T11:16:18.820Z,54.21
2022-10-02T11:19:00.945Z,55.06
2022-10-02T11:22:01.417Z,54.40
2022-10-02T11:28:39.930Z,55.32
2022-10-02T11:31:42.950Z,54.62
2022-10-02T11:34:40.144Z,53.51
2022-10-02T11:37:24.157Z,54.23
2022-10-02T11:40:22.763Z,54.66
2022-10-02T11:43:14.034Z,54.89
2022-10-02T11:46:05.887Z,54.94
2022-10-02T11:49:05.703Z,54.66
2022-10-02T11:52:20.312Z,54.90
2022-10-02T11:55:13.381Z,55.94
2022-10-02T11:57:54.675Z,55.37
2022-10-02T12:03:52.411Z,55.93
2022-10-02T12:06:42.182Z,56.44
2022-10-02T12:09:14.103Z,55.59
2022-10-02T12:11:51.180Z,55.60
2022-10-02T12:14:36.395Z,56.08
2022-10-02T12:17:34.665Z,56.66
2022-10-02T12:20:31.002Z,57.03
2022-10-02T12:23:25.364Z,56.92
2022-10-02T12:26:17.308Z,56.88
2022-10-02T12:28:56.839Z,57.20
2022-10-02T12:31:32.202Z,57.76
2022-10-02T12:34:04.298Z,58.34
2022-10-02T12:36:56.396Z,58.75
2022-10-02T12:39:40.098Z,60.17
2022-10-02T12:42:20.987Z,60.10
2022-10-02T12:45:13.731Z,60.52
2022-10-02T12:48:00.310Z,61.07
2022-10-02T14:34:10.691Z,61.65
2022-10-02T15:36:19.596Z,60.51
2022-10-02T15:39:34.407Z,59.86
2022-10-02T16:01:18.738Z,61.70
2022-10-02T16:04:07.605Z,62.06
2022-10-02T16:06:53.521Z,62.00
2022-10-02T16:09:42.068Z,61.89
2022-10-02T16:12:36.777Z,60.96
2022-10-02T16:15:15.464Z,60.87
2022-10-02T16:18:18.742Z,61.20
2022-10-02T16:21:06.481Z,61.95
2022-10-02T16:23:46.729Z,62.62
2022-10-02T16:26:26.448Z,63.15
2022-10-02T16:29:08.742Z,63.42
2022-10-02T16:32:01.335Z,63.75
2022-10-02T16:34:43.096Z,63.96
2022-10-02T16:37:23.071Z,64.37
2022-10-02T16:40:00.098Z,64.71
2022-10-02T16:42:40.746Z,64.65
2022-10-02T16:45:49.129Z,64.70
2022-10-02T16:48:22.416Z,65.46
2022-10-02T16:51:15.059Z,65.55
2022-10-02T16:53:51.713Z,65.71
2022-10-02T16:56:25.348Z,65.89
2022-10-02T16:59:01.571Z,65.85
2022-10-02T17:01:34.172Z,65.92
2022-10-02T17:04:17.514Z,66.07
2022-10-02T17:06:50.025Z,66.30
2022-10-02T17:09:30.736Z,66.40
2022-10-02T17:12:08.270Z,66.55
2022-10-02T17:14:45.041Z,66.34
2022-10-02T17:17:20.934Z,66.68
2022-10-02T17:19:55.546Z,66.74
2022-10-02T17:22:35.568Z,66.80
2022-10-02T17:25:14.799Z,66.72
2022-10-02T17:27:48.561Z,66.73
2022-10-02T17:30:21.049Z,66.85
2022-10-02T17:32:50.327Z,67.05
2022-10-02T17:35:31.906Z,66.71
2022-10-02T17:38:47.822Z,67.01
2022-10-02T17:41:33.390Z,67.08
2022-10-02T17:44:11.040Z,67.16
2022-10-02T17:46:59.772Z,66.89
2022-10-02T17:49:36.865Z,66.63
2022-10-02T17:52:36.708Z,66.79
2022-10-02T17:55:36.713Z,66.42
2022-10-02T17:58:17.367Z,66.58
2022-10-02T18:00:59.083Z,66.39
2022-10-02T18:03:40.781Z,66.56
2022-10-02T18:06:17.134Z,66.39
2022-10-02T18:09:09.139Z,66.46
2022-10-02T18:12:02.730Z,66.19
2022-10-02T18:14:55.136Z,66.21
2022-10-02T18:17:33.011Z,66.63
2022-10-02T18:20:11.380Z,66.41
2022-10-02T18:22:55.612Z,66.58
2022-10-02T18:25:41.670Z,66.26
2022-10-02T18:28:26.149Z,66.07
2022-10-02T18:31:09.176Z,66.05
2022-10-02T18:34:06.881Z,65.94
2022-10-02T18:36:50.085Z,65.99
2022-10-02T18:39:23.351Z,66.22
2022-10-02T18:41:56.215Z,65.92
2022-10-02T18:44:38.259Z,65.97
2022-10-02T18:47:12.655Z,65.62
2022-10-02T18:49:54.909Z,65.77
2022-10-02T18:52:43.906Z,66.01
2022-10-02T18:55:24.501Z,65.69
2022-10-02T18:58:07.353Z,65.74
2022-10-02T19:01:01.842Z,65.74
2022-10-02T19:03:39.070Z,66.08
2022-10-02T19:06:13.799Z,66.24
2022-10-02T19:09:11.182Z,65.65
2022-10-02T19:11:44.261Z,65.71
2022-10-02T19:14:14.753Z,65.74
2022-10-02T19:16:57.614Z,65.89
2022-10-02T19:19:27.860Z,65.97
2022-10-02T19:21:59.463Z,66.18
2022-10-02T19:24:31.223Z,66.10
2022-10-02T19:27:04.492Z,66.13
2022-10-02T19:29:36.777Z,66.33
2022-10-02T19:32:12.777Z,66.29
2022-10-02T19:34:42.314Z,65.78
2022-10-02T19:37:14.416Z,66.18
2022-10-02T19:39:49.594Z,66.03
2022-10-02T19:42:22.030Z,66.30
2022-10-02T19:44:53.453Z,66.04
2022-10-02T19:47:30.146Z,66.05
2022-10-02T19:50:01.413Z,65.77
2022-10-02T19:52:34.534Z,65.92
2022-10-02T19:55:04.559Z,65.65
2022-10-02T19:57:35.239Z,65.62
2022-10-02T20:00:03.185Z,66.00
2022-10-02T20:02:36.087Z,66.02
2022-10-02T20:05:07.963Z,66.19
2022-10-02T20:07:38.569Z,65.82
2022-10-02T20:10:15.157Z,66.25
2022-10-02T20:12:48.403Z,65.93
2022-10-02T20:15:40.016Z,66.21
2022-10-02T20:18:07.662Z,66.23
2022-10-02T20:20:37.209Z,66.29
2022-10-02T20:23:10.278Z,66.33
2022-10-02T20:25:42.261Z,66.58
2022-10-02T20:28:16.022Z,66.77
2022-10-02T20:30:49.276Z,66.88
2022-10-02T20:33:21.110Z,66.65
2022-10-02T20:35:54.553Z,66.65
2022-10-02T20:38:28.036Z,66.68
2022-10-02T20:40:58.279Z,67.05
2022-10-02T20:43:32.817Z,66.46
2022-10-02T20:46:16.003Z,66.63
2022-10-02T20:49:09.465Z,66.58
2022-10-02T20:52:10.259Z,66.14
2022-10-02T20:54:48.641Z,66.05
2022-10-02T20:58:00.587Z,66.05
2022-10-02T21:00:39.613Z,66.25
2022-10-02T21:03:51.760Z,66.20
2022-10-02T21:06:32.136Z,65.90
2022-10-02T21:09:34.584Z,65.73
2022-10-02T21:12:29.343Z,65.84
2022-10-02T21:15:29.663Z,65.69
2022-10-02T21:18:21.095Z,65.73
2022-10-02T21:21:20.255Z,66.16
2022-10-02T21:24:26.482Z,66.32
2022-10-02T21:27:31.101Z,66.86
2022-10-02T21:30:11.572Z,66.40
2022-10-02T21:33:04.602Z,66.85
2022-10-02T21:35:38.734Z,67.08
2022-10-02T21:38:27.816Z,66.94
2022-10-02T21:41:39.673Z,67.20
2022-10-02T21:44:59.237Z,67.18
2022-10-02T21:48:04.479Z,67.27
2022-10-02T21:51:12.023Z,67.08
2022-10-02T21:54:27.680Z,66.98
2022-10-02T21:57:21.897Z,67.28
2022-10-02T22:00:17.401Z,66.91
2022-10-02T22:03:25.457Z,67.30
2022-10-02T22:06:21.067Z,66.89
2022-10-02T22:09:03.808Z,67.03
2022-10-02T22:11:39.577Z,67.01
2022-10-02T22:14:11.633Z,66.82
2022-10-02T22:16:51.752Z,66.93
2022-10-02T22:19:31.150Z,66.75
2022-10-02T22:22:12.909Z,67.14
2022-10-02T22:24:57.200Z,67.17
2022-10-02T22:27:46.239Z,66.99
2022-10-02T22:30:23.036Z,66.99
2022-10-02T22:33:12.284Z,67.26
2022-10-02T22:36:01.113Z,67.45
2022-10-02T22:38:34.882Z,67.47
2022-10-02T22:41:08.192Z,67.40
2022-10-02T22:43:44.678Z,66.93
2022-10-02T22:46:26.322Z,67.20
2022-10-02T22:49:01.009Z,66.95
2022-10-02T22:51:38.625Z,67.00
2022-10-02T22:54:19.139Z,67.20
2022-10-02T22:56:55.124Z,67.14
2022-10-02T22:59:29.755Z,66.85
2022-10-02T23:02:04.764Z,66.71
2022-10-02T23:04:39.614Z,66.43
2022-10-02T23:07:14.350Z,66.14
2022-10-02T23:09:49.461Z,66.26
2022-10-02T23:12:25.453Z,66.13
2022-10-02T23:15:03.101Z,65.95
2022-10-02T23:17:38.281Z,66.36
2022-10-02T23:20:15.763Z,66.32
2022-10-02T23:22:51.402Z,66.03
2022-10-02T23:25:23.690Z,65.84
2022-10-02T23:27:58.766Z,66.27
2022-10-02T23:30:25.658Z,66.27
2022-10-02T23:33:00.022Z,66.14
2022-10-02T23:35:36.056Z,66.26
2022-10-02T23:38:12.599Z,66.21
2022-10-02T23:41:18.446Z,66.13
2022-10-02T23:43:54.407Z,65.90
2022-10-02T23:46:28.258Z,66.24
2022-10-02T23:48:56.093Z,66.29
2022-10-02T23:51:33.868Z,66.10
2022-10-02T23:54:24.586Z,66.07
2022-10-02T23:57:17.549Z,66.23
